Time;durP1;ratioP1;P1;durP2;ratioP2;P2;SDS_P1;SDS_P2;PMS_P1;PMS_P2;Temp;Humidity;BMP_temperature;BMP_pressure;BME280_temperature;BME280_humidity;BME280_pressure;Samples;Min_cycle;Max_cycle;Signal;HPM_P1;HPM_P2
2023/11/21 00:01:37;;;;;;;;;;;;;;;;;;5117743;28;19935;-72
2023/11/21 00:04:03;;;;;;;;;;;;;;;;;;5117347;28;19907;-72
2023/11/21 00:06:30;;;;;;;;;;;;;;;;;;5117567;28;19908;-72
2023/11/21 00:08:56;;;;;;;;;;;;;;;;;;5116804;28;19920;-72
2023/11/21 00:11:22;;;;;;;;;;;;;;;;;;5116436;28;20374;-72
2023/11/21 00:13:47;;;;;;;;;;;;;;;;;;5117481;28;20356;-72
2023/11/21 00:16:13;;;;;;;;;;;;;;;;;;5116996;28;20363;-71
2023/11/21 00:18:39;;;;;;;;;;;;;;;;;;5117352;27;20416;-72
2023/11/21 00:21:05;;;;;;;;;;;;;;;;;;5117231;28;19915;-72
2023/11/21 00:23:31;;;;;;;;;;;;;;;;;;5116749;28;19911;-72
2023/11/21 00:25:57;;;;;;;;;;;;;;;;;;5117471;28;19925;-72
2023/11/21 00:28:23;;;;;;;;;;;;;;;;;;5117122;28;19916;-72
2023/11/21 00:30:49;;;;;;;;;;;;;;;;;;5116680;28;19908;-72
2023/11/21 00:33:15;;;;;;;;;;;;;;;;;;5117293;28;19931;-71
2023/11/21 00:35:41;;;;;;;;;;;;;;;;;;5100361;28;19908;-72
2023/11/21 00:38:08;;;;;;;;;;;;;;;;;;5095857;28;19916;-72
2023/11/21 00:40:34;;;;;;;;;;;;;;;;;;5095913;28;19908;-72
2023/11/21 00:43:00;;;;;;;;;;;;;;;;;;5096318;28;19908;-72
2023/11/21 00:45:26;;;;;;;;;;;;;;;;;;5095906;28;20430;-72
2023/11/21 00:47:52;;;;;;;;;;;;;;;;;;5096325;28;19909;-72
2023/11/21 00:50:19;;;;;;;;;;;;;;;;;;5096327;28;19912;-71
2023/11/21 00:52:45;;;;;;;;;;;;;;;;;;5095873;28;19915;-72
2023/11/21 00:55:12;;;;;;;;;;;;;;;;;;5096102;28;19935;-72
2023/11/21 00:57:38;;;;;;;;;;;;;;;;;;5096164;28;19920;-72
2023/11/21 01:00:07;;;;;;;;;;;;;;;;;;5095733;28;19923;-71
2023/11/21 01:02:35;;;;;;;;;;;;;;;;;;5096097;28;19962;-72
2023/11/21 01:05:02;;;;;;;;;;;;;;;;;;5095660;28;19961;-71
2023/11/21 01:07:28;;;;;;;;;;;;;;;;;;5095796;28;20011;-73
2023/11/21 01:09:53;;;;;;;;;;;;;;;;;;5096194;28;20337;-71
2023/11/21 01:12:19;;;;;;;;;;;;;;;;;;5077400;28;19965;-71
2023/11/21 01:14:46;;;;;;;;;;;;;;;;;;5077715;28;19914;-71
2023/11/21 01:17:12;;;;;;;;;;;;;;;;;;5095874;28;19912;-71
2023/11/21 01:19:37;;;;;;;;;;;;;;;;;;5095361;28;20011;-72
2023/11/21 01:22:03;;;;;;;;;;;;;;;;;;5095665;28;19908;-71
2023/11/21 01:24:29;;;;;;;;;;;;;;;;;;5096016;28;19908;-72
2023/11/21 01:26:55;;;;;;;;;;;;;;;;;;5095175;28;19957;-72
2023/11/21 01:29:21;;;;;;;;;;;;;;;;;;5095501;28;19916;-72
2023/11/21 01:31:47;;;;;;;;;;;;;;;;;;5095489;28;19912;-72
2023/11/21 01:34:14;;;;;;;;;;;;;;;;;;5095118;28;20016;-72
2023/11/21 01:36:40;;;;;;;;;;;;;;;;;;5095377;28;19908;-72
2023/11/21 01:39:08;;;;;;;;;;;;;;;;;;5095548;28;19934;-72
2023/11/21 01:41:35;;;;;;;;;;;;;;;;;;5095031;28;19915;-72
2023/11/21 01:44:01;;;;;;;;;;;;;;;;;;5095316;28;19951;-72
2023/11/21 01:46:26;;;;;;;;;;;;;;;;;;5077017;28;20284;-72
2023/11/21 01:48:53;;;;;;;;;;;;;;;;;;5094914;28;19961;-71
2023/11/21 01:51:19;;;;;;;;;;;;;;;;;;5095316;28;19915;-71
2023/11/21 01:53:46;;;;;;;;;;;;;;;;;;5094270;28;19908;-72
2023/11/21 01:56:12;;;;;;;;;;;;;;;;;;5094684;28;19961;-71
2023/11/21 01:58:38;;;;;;;;;;;;;;;;;;5095002;28;19943;-72
2023/11/21 02:01:05;;;;;;;;;;;;;;;;;;5094923;28;20287;-72
2023/11/21 02:03:31;;;;;;;;;;;;;;;;;;5094452;28;19914;-72
2023/11/21 02:05:57;;;;;;;;;;;;;;;;;;5094858;28;19908;-72
2023/11/21 02:08:22;;;;;;;;;;;;;;;;;;5081502;28;19927;-72
2023/11/21 02:10:48;;;;;;;;;;;;;;;;;;5094791;28;19908;-72
2023/11/21 02:13:16;;;;;;;;;;;;;;;;;;5093478;28;19908;-72
2023/11/21 02:15:42;;;;;;;;;;;;;;;;;;5094308;28;20395;-72
2023/11/21 02:18:09;;;;;;;;;;;;;;;;;;5094857;28;20014;-72
2023/11/21 02:20:38;;;;;;;;;;;;;;;;;;5094708;28;19908;-72
2023/11/21 02:23:05;;;;;;;;;;;;;;;;;;5094170;28;19908;-72
2023/11/21 02:25:31;;;;;;;;;;;;;;;;;;5094525;28;19908;-72
2023/11/21 02:27:57;;;;;;;;;;;;;;;;;;5094500;28;19919;-72
2023/11/21 02:30:24;;;;;;;;;;;;;;;;;;5094032;28;19913;-72
2023/11/21 02:32:52;;;;;;;;;;;;;;;;;;5093141;28;19947;-72
2023/11/21 02:35:20;;;;;;;;;;;;;;;;;;5094392;28;19915;-72
2023/11/21 02:37:46;;;;;;;;;;;;;;;;;;5092633;28;20003;-72
2023/11/21 02:40:12;;;;;;;;;;;;;;;;;;5094251;28;19962;-72
2023/11/21 02:42:39;;;;;;;;;;;;;;;;;;5094357;28;19908;-72
2023/11/21 02:45:05;;;;;;;;;;;;;;;;;;5093802;28;19908;-72
2023/11/21 02:47:31;;;;;;;;;;;;;;;;;;5094404;28;19934;-72
2023/11/21 02:49:57;;;;;;;;;;;;;;;;;;5094060;28;20361;-72
2023/11/21 02:52:23;;;;;;;;;;;;;;;;;;5093700;28;20441;-72
2023/11/21 02:54:49;;;;;;;;;;;;;;;;;;5094137;28;19934;-71
2023/11/21 02:57:15;;;;;;;;;;;;;;;;;;5094036;28;19909;-72
2023/11/21 02:59:41;;;;;;;;;;;;;;;;;;5093627;28;19908;-72
2023/11/21 03:02:08;;;;;;;;;;;;;;;;;;5092761;28;20006;-72
2023/11/21 03:04:34;;;;;;;;;;;;;;;;;;5093608;28;19908;-72
2023/11/21 03:07:00;;;;;;;;;;;;;;;;;;5094184;28;19915;-72
2023/11/21 03:09:26;;;;;;;;;;;;;;;;;;5093633;28;20010;-72
2023/11/21 03:11:52;;;;;;;;;;;;;;;;;;5075562;28;19938;-72
2023/11/21 03:14:18;;;;;;;;;;;;;;;;;;5093867;28;19908;-72
2023/11/21 03:16:45;;;;;;;;;;;;;;;;;;5093989;28;19963;-72
2023/11/21 03:19:11;;;;;;;;;;;;;;;;;;5093568;28;20359;-72
2023/11/21 03:21:37;;;;;;;;;;;;;;;;;;5093819;28;19958;-72
2023/11/21 03:24:02;;;;;;;;;;;;;;;;;;5093802;28;20316;-72
2023/11/21 03:26:29;;;;;;;;;;;;;;;;;;5093377;28;19908;-72
2023/11/21 03:28:55;;;;;;;;;;;;;;;;;;5093747;28;20285;-72
2023/11/21 03:31:21;;;;;;;;;;;;;;;;;;5093795;28;19909;-72
2023/11/21 03:33:47;;;;;;;;;;;;;;;;;;5093296;28;19918;-72
2023/11/21 03:36:14;;;;;;;;;;;;;;;;;;5093651;28;19908;-72
2023/11/21 03:38:40;;;;;;;;;;;;;;;;;;5093631;28;19908;-72
2023/11/21 03:41:06;;;;;;;;;;;;;;;;;;5075079;28;19908;-72
2023/11/21 03:43:32;;;;;;;;;;;;;;;;;;5093562;28;20007;-72
2023/11/21 03:45:58;;;;;;;;;;;;;;;;;;5093564;28;19908;-72
2023/11/21 03:48:24;;;;;;;;;;;;;;;;;;5093075;28;19916;-72
2023/11/21 03:50:50;;;;;;;;;;;;;;;;;;5093509;28;19953;-71
2023/11/21 03:53:16;;;;;;;;;;;;;;;;;;5093463;28;19908;-71
2023/11/21 03:55:42;;;;;;;;;;;;;;;;;;5093029;28;19908;-71
2023/11/21 03:58:08;;;;;;;;;;;;;;;;;;5093317;28;19915;-71
2023/11/21 04:00:34;;;;;;;;;;;;;;;;;;5093407;28;19908;-72
2023/11/21 04:03:00;;;;;;;;;;;;;;;;;;5074987;28;20318;-72
2023/11/21 04:05:26;;;;;;;;;;;;;;;;;;5093382;28;20280;-72
2023/11/21 04:07:52;;;;;;;;;;;;;;;;;;5075764;28;20347;-72
2023/11/21 04:10:18;;;;;;;;;;;;;;;;;;5093264;28;20280;-72
2023/11/21 04:12:45;;;;;;;;;;;;;;;;;;5093599;28;20304;-72
2023/11/21 04:15:11;;;;;;;;;;;;;;;;;;5092888;28;19920;-71
2023/11/21 04:17:37;;;;;;;;;;;;;;;;;;5096958;28;19916;-71
2023/11/21 04:20:03;;;;;;;;;;;;;;;;;;5096908;28;20007;-71
2023/11/21 04:22:29;;;;;;;;;;;;;;;;;;5096457;28;20359;-72
2023/11/21 04:24:55;;;;;;;;;;;;;;;;;;5097156;28;19950;-72
2023/11/21 04:27:22;;;;;;;;;;;;;;;;;;5096760;28;19915;-72
2023/11/21 04:29:47;;;;;;;;;;;;;;;;;;5094984;28;19920;-72
2023/11/21 04:32:13;;;;;;;;;;;;;;;;;;5096690;28;20315;-71
2023/11/21 04:34:39;;;;;;;;;;;;;;;;;;5096912;28;19908;-72
2023/11/21 04:37:06;;;;;;;;;;;;;;;;;;5096139;28;19909;-72
2023/11/21 04:39:32;;;;;;;;;;;;;;;;;;5095241;28;20418;-72
2023/11/21 04:41:58;;;;;;;;;;;;;;;;;;5096454;28;19908;-72
2023/11/21 04:44:24;;;;;;;;;;;;;;;;;;5096031;28;19914;-72
2023/11/21 04:46:50;;;;;;;;;;;;;;;;;;5095136;28;20398;-72
2023/11/21 04:49:16;;;;;;;;;;;;;;;;;;5096558;28;20364;-71
2023/11/21 04:51:42;;;;;;;;;;;;;;;;;;5095861;28;19915;-72
2023/11/21 04:54:07;;;;;;;;;;;;;;;;;;5096242;28;19912;-71
2023/11/21 04:56:33;;;;;;;;;;;;;;;;;;5096817;28;19912;-72
2023/11/21 04:58:59;;;;;;;;;;;;;;;;;;5095807;28;20003;-72
2023/11/21 05:01:26;;;;;;;;;;;;;;;;;;5096113;28;19915;-71
2023/11/21 05:03:52;;;;;;;;;;;;;;;;;;5096059;28;19914;-71
2023/11/21 05:06:18;;;;;;;;;;;;;;;;;;5095605;28;20379;-71
2023/11/21 05:08:44;;;;;;;;;;;;;;;;;;5095759;28;19920;-71
2023/11/21 05:11:14;;;;;;;;;;;;;;;;;;5095436;28;19909;-71
2023/11/21 05:13:40;;;;;;;;;;;;;;;;;;5096119;28;19915;-72
2023/11/21 05:16:07;;;;;;;;;;;;;;;;;;5077664;28;19908;-73
2023/11/21 05:18:34;;;;;;;;;;;;;;;;;;5095752;28;19948;-71
2023/11/21 05:21:00;;;;;;;;;;;;;;;;;;5095731;28;19916;-71
2023/11/21 05:23:26;;;;;;;;;;;;;;;;;;5095809;28;19912;-72
2023/11/21 05:25:52;;;;;;;;;;;;;;;;;;5095152;28;19961;-71
2023/11/21 05:28:18;;;;;;;;;;;;;;;;;;5094398;28;19924;-71
2023/11/21 05:30:44;;;;;;;;;;;;;;;;;;5095287;28;19908;-72
2023/11/21 05:33:10;;;;;;;;;;;;;;;;;;5094694;28;19909;-71
2023/11/21 05:35:36;;;;;;;;;;;;;;;;;;5094442;28;20146;-70
2023/11/21 05:38:02;;;;;;;;;;;;;;;;;;5095416;28;20364;-71
2023/11/21 05:40:29;;;;;;;;;;;;;;;;;;5094492;28;20379;-71
2023/11/21 05:42:55;;;;;;;;;;;;;;;;;;5093880;28;19915;-71
2023/11/21 05:45:21;;;;;;;;;;;;;;;;;;5076012;28;20323;-71
2023/11/21 05:47:47;;;;;;;;;;;;;;;;;;5094551;28;19919;-71
2023/11/21 05:50:17;;;;;;;;;;;;;;;;;;5094483;28;20010;-71
2023/11/21 05:52:43;;;;;;;;;;;;;;;;;;5094405;28;19991;-71
2023/11/21 05:55:09;;;;;;;;;;;;;;;;;;5092633;28;20042;-71
2023/11/21 05:57:38;;;;;;;;;;;;;;;;;;5092994;28;20253;-73
2023/11/21 06:00:10;;;;;;;;;;;;;;;;;;5092950;28;19916;-71
2023/11/21 06:02:36;;;;;;;;;;;;;;;;;;5092505;28;19908;-71
2023/11/21 06:05:04;;;;;;;;;;;;;;;;;;5093102;28;19927;-71
2023/11/21 06:07:30;;;;;;;;;;;;;;;;;;5092122;28;19916;-71
2023/11/21 06:09:56;;;;;;;;;;;;;;;;;;5074435;28;19999;-72
2023/11/21 06:12:22;;;;;;;;;;;;;;;;;;5092689;28;20436;-71
2023/11/21 06:14:48;;;;;;;;;;;;;;;;;;5093543;28;19955;-71
2023/11/21 06:17:14;;;;;;;;;;;;;;;;;;5092743;28;19908;-70
2023/11/21 06:19:40;;;;;;;;;;;;;;;;;;5069354;28;19917;-68
2023/11/21 06:22:06;;;;;;;;;;;;;;;;;;5054616;28;20357;-68
2023/11/21 06:24:32;;;;;;;;;;;;;;;;;;5072100;28;19915;-69
2023/11/21 06:26:58;;;;;;;;;;;;;;;;;;5071652;28;19916;-70
2023/11/21 06:29:26;;;;;;;;;;;;;;;;;;5069939;28;19924;-74
2023/11/21 06:31:54;;;;;;;;;;;;;;;;;;5071565;28;19916;-67
2023/11/21 06:34:21;;;;;;;;;;;;;;;;;;5067090;28;19912;-70
2023/11/21 06:36:48;;;;;;;;;;;;;;;;;;5050676;28;19958;-68
2023/11/21 06:39:15;;;;;;;;;;;;;;;;;;5051426;28;20011;-70
2023/11/21 06:41:42;;;;;;;;;;;;;;;;;;5090550;28;20310;-68
2023/11/21 06:44:08;;;;;;;;;;;;;;;;;;5079300;28;20356;-67
2023/11/21 06:46:34;;;;;;;;;;;;;;;;;;5067077;28;19912;-69
2023/11/21 06:49:00;;;;;;;;;;;;;;;;;;5055956;28;19924;-67
2023/11/21 06:51:26;;;;;;;;;;;;;;;;;;5063650;28;20291;-70
2023/11/21 06:53:53;;;;;;;;;;;;;;;;;;5057716;28;19917;-69
2023/11/21 06:56:19;;;;;;;;;;;;;;;;;;5072179;28;19939;-73
2023/11/21 06:58:48;;;;;;;;;;;;;;;;;;5062299;28;19909;-77
2023/11/21 07:01:15;;;;;;;;;;;;;;;;;;5064108;28;19916;-72
2023/11/21 07:03:42;;;;;;;;;;;;;;;;;;5071648;28;19919;-72
2023/11/21 07:06:07;;;;;;;;;;;;;;;;;;5067672;28;19931;-72
2023/11/21 07:08:33;;;;;;;;;;;;;;;;;;5073057;28;19928;-75
2023/11/21 07:10:59;;;;;;;;;;;;;;;;;;5071160;28;19909;-73
2023/11/21 07:13:35;;;;;;;;;;;;;;;;;;5072437;28;19909;-72
2023/11/21 07:16:10;;;;;;;;;;;;;;;;;;5070992;28;20237;-72
2023/11/21 07:18:36;;;;;;;;;;;;;;;;;;5075546;28;20396;-77
2023/11/21 07:21:02;;;;;;;;;;;;;;;;;;5078634;28;19959;-73
2023/11/21 07:23:28;;;;;;;;;;;;;;;;;;5062976;28;19920;-74
2023/11/21 07:25:54;;;;;;;;;;;;;;;;;;5070234;28;20699;-76
2023/11/21 07:28:20;;;;;;;;;;;;;;;;;;5069004;28;20339;-69
2023/11/21 07:30:46;;;;;;;;;;;;;;;;;;5067857;28;19919;-69
2023/11/21 07:33:12;;;;;;;;;;;;;;;;;;5066362;28;19915;-69
2023/11/21 07:35:38;;;;;;;;;;;;;;;;;;5066690;28;19920;-69
2023/11/21 07:38:04;;;;;;;;;;;;;;;;;;5047849;28;19909;-69
2023/11/21 07:40:30;;;;;;;;;;;;;;;;;;5049006;28;19958;-69
2023/11/21 07:42:57;;;;;;;;;;;;;;;;;;5067680;28;20003;-71
2023/11/21 07:45:23;;;;;;;;;;;;;;;;;;5068667;28;19913;-68
2023/11/21 07:47:51;;;;;;;;;;;;;;;;;;5070319;28;19961;-71
2023/11/21 07:50:18;;;;;;;;;;;;;;;;;;5068702;28;20312;-67
2023/11/21 07:52:56;;;;;;;;;;;;;;;;;;5057584;28;19912;-68
2023/11/21 07:55:22;;;;;;;;;;;;;;;;;;5075815;28;19954;-68
2023/11/21 07:57:48;;;;;;;;;;;;;;;;;;5057295;28;19986;-68
2023/11/21 08:00:15;;;;;;;;;;;;;;;;;;5075680;28;20678;-68
2023/11/21 08:02:45;;;;;;;;;;;;;;;;;;5056793;28;20413;-67
2023/11/21 08:05:11;;;;;;;;;;;;;;;;;;5074899;28;20241;-68
2023/11/21 08:07:37;;;;;;;;;;;;;;;;;;5076373;28;20007;-68
2023/11/21 08:10:04;;;;;;;;;;;;;;;;;;5093410;28;19916;-70
2023/11/21 08:12:36;;;;;;;;;;;;;;;;;;5084914;28;19916;-70
2023/11/21 08:15:03;;;;;;;;;;;;;;;;;;5055301;28;19975;-69
2023/11/21 08:17:31;;;;;;;;;;;;;;;;;;5054308;28;19920;-79
2023/11/21 08:19:58;;;;;;;;;;;;;;;;;;5083209;28;19920;-73
2023/11/21 08:22:24;;;;;;;;;;;;;;;;;;5064435;28;20035;-70
2023/11/21 08:24:50;;;;;;;;;;;;;;;;;;5069474;28;20503;-69
2023/11/21 08:27:19;;;;;;;;;;;;;;;;;;5072401;28;19913;-69
2023/11/21 08:29:45;;;;;;;;;;;;;;;;;;5079185;28;19920;-68
2023/11/21 08:32:12;;;;;;;;;;;;;;;;;;5065840;28;19920;-66
2023/11/21 08:34:39;;;;;;;;;;;;;;;;;;5047252;28;20030;-68
2023/11/21 08:37:05;;;;;;;;;;;;;;;;;;5056096;28;19917;-67
2023/11/21 08:39:31;;;;;;;;;;;;;;;;;;5053836;28;20334;-70
2023/11/21 08:41:57;;;;;;;;;;;;;;;;;;5035053;28;20288;-70
2023/11/21 08:44:23;;;;;;;;;;;;;;;;;;5053345;28;20004;-67
2023/11/21 08:46:49;;;;;;;;;;;;;;;;;;5073451;28;19919;-69
2023/11/21 08:49:15;;;;;;;;;;;;;;;;;;5051665;28;19916;-66
2023/11/21 08:51:41;;;;;;;;;;;;;;;;;;5070772;28;19919;-71
2023/11/21 08:54:11;;;;;;;;;;;;;;;;;;5070875;28;19917;-69
2023/11/21 08:56:37;;;;;;;;;;;;;;;;;;5065518;28;19923;-71
2023/11/21 08:59:03;;;;;;;;;;;;;;;;;;5080062;28;19912;-67
2023/11/21 09:01:32;;;;;;;;;;;;;;;;;;5074844;28;20348;-70
2023/11/21 09:03:58;;;;;;;;;;;;;;;;;;5072911;28;20353;-69
2023/11/21 09:06:24;;;;;;;;;;;;;;;;;;5093793;28;19959;-70
2023/11/21 09:08:50;;;;;;;;;;;;;;;;;;5097680;28;19927;-70
2023/11/21 09:11:16;;;;;;;;;;;;;;;;;;5088455;28;19912;-69
2023/11/21 09:13:42;;;;;;;;;;;;;;;;;;5091229;28;19912;-70
2023/11/21 09:16:08;;;;;;;;;;;;;;;;;;5092615;28;19919;-68
2023/11/21 09:18:34;;;;;;;;;;;;;;;;;;5091644;28;20284;-67
2023/11/21 09:21:00;;;;;;;;;;;;;;;;;;5092078;28;20300;-68
2023/11/21 09:23:26;;;;;;;;;;;;;;;;;;5090444;28;20272;-66
2023/11/21 09:25:56;;;;;;;;;;;;;;;;;;5091960;28;20003;-67
2023/11/21 09:28:22;;;;;;;;;;;;;;;;;;5092969;28;19920;-68
2023/11/21 09:30:49;;;;;;;;;;;;;;;;;;5091252;28;19923;-68
2023/11/21 09:33:16;;;;;;;;;;;;;;;;;;5092649;28;19999;-69
2023/11/21 09:35:43;;;;;;;;;;;;;;;;;;5093429;28;19978;-69
2023/11/21 09:38:10;;;;;;;;;;;;;;;;;;5093688;28;20360;-70
2023/11/21 09:40:37;;;;;;;;;;;;;;;;;;5093970;28;19908;-70
2023/11/21 09:43:04;;;;;;;;;;;;;;;;;;5091307;28;20007;-69
2023/11/21 09:45:31;;;;;;;;;;;;;;;;;;5093146;28;19912;-69
2023/11/21 09:48:00;;;;;;;;;;;;;;;;;;5088748;28;19935;-68
2023/11/21 09:50:26;;;;;;;;;;;;;;;;;;5090781;28;19956;-69
2023/11/21 09:52:52;;;;;;;;;;;;;;;;;;5077722;28;19912;-69
2023/11/21 09:55:20;;;;;;;;;;;;;;;;;;5082047;28;20253;-69
2023/11/21 09:57:48;;;;;;;;;;;;;;;;;;5087163;28;19916;-69
2023/11/21 10:00:17;;;;;;;;;;;;;;;;;;5090338;28;19922;-69
2023/11/21 10:02:43;;;;;;;;;;;;;;;;;;5090902;28;19959;-69
2023/11/21 10:05:12;;;;;;;;;;;;;;;;;;5091045;28;19966;-69
2023/11/21 10:07:38;;;;;;;;;;;;;;;;;;5089206;28;19908;-69
2023/11/21 10:10:04;;;;;;;;;;;;;;;;;;5076456;28;20026;-69
2023/11/21 10:12:30;;;;;;;;;;;;;;;;;;5085396;28;20326;-69
2023/11/21 10:14:56;;;;;;;;;;;;;;;;;;5084914;28;20007;-69
2023/11/21 10:17:22;;;;;;;;;;;;;;;;;;5085635;28;19995;-69
2023/11/21 10:19:48;;;;;;;;;;;;;;;;;;5088584;28;19915;-69
2023/11/21 10:22:14;;;;;;;;;;;;;;;;;;5090401;28;19923;-69
2023/11/21 10:24:42;;;;;;;;;;;;;;;;;;5091410;28;19912;-69
2023/11/21 10:27:08;;;;;;;;;;;;;;;;;;5090592;28;19908;-70
2023/11/21 10:29:35;;;;;;;;;;;;;;;;;;5088082;28;20421;-69
2023/11/21 10:32:01;;;;;;;;;;;;;;;;;;5090327;28;19995;-71
2023/11/21 10:34:27;;;;;;;;;;;;;;;;;;5090416;28;20002;-69
2023/11/21 10:36:53;;;;;;;;;;;;;;;;;;5088103;28;19915;-69
2023/11/21 10:39:19;;;;;;;;;;;;;;;;;;5091915;28;19912;-70
2023/11/21 10:41:48;;;;;;;;;;;;;;;;;;5093424;28;19908;-70
2023/11/21 10:44:20;;;;;;;;;;;;;;;;;;5092600;28;19931;-72
2023/11/21 10:46:50;;;;;;;;;;;;;;;;;;5092451;28;19974;-71
2023/11/21 10:49:16;;;;;;;;;;;;;;;;;;5091516;28;20280;-72
2023/11/21 10:51:43;;;;;;;;;;;;;;;;;;5086261;28;19923;-70
2023/11/21 10:54:09;;;;;;;;;;;;;;;;;;5092064;28;19912;-72
2023/11/21 10:56:40;;;;;;;;;;;;;;;;;;5092380;28;20418;-72
2023/11/21 10:59:06;;;;;;;;;;;;;;;;;;5090724;28;20331;-72
2023/11/21 11:01:32;;;;;;;;;;;;;;;;;;5090857;28;20356;-70
2023/11/21 11:03:58;;;;;;;;;;;;;;;;;;5090847;28;19908;-72
2023/11/21 11:06:26;;;;;;;;;;;;;;;;;;5089831;28;20284;-73
2023/11/21 11:08:52;;;;;;;;;;;;;;;;;;5092218;28;19942;-72
2023/11/21 11:11:18;;;;;;;;;;;;;;;;;;5092122;28;20368;-73
2023/11/21 11:13:47;;;;;;;;;;;;;;;;;;5092373;28;19953;-72
2023/11/21 11:16:17;;;;;;;;;;;;;;;;;;5073712;28;19970;-73
2023/11/21 11:18:44;;;;;;;;;;;;;;;;;;5061161;28;20266;-73
2023/11/21 11:21:10;;;;;;;;;;;;;;;;;;5068453;28;19909;-72
2023/11/21 11:23:36;;;;;;;;;;;;;;;;;;5069292;28;19912;-70
2023/11/21 11:26:02;;;;;;;;;;;;;;;;;;5072486;28;19936;-69
2023/11/21 11:28:28;;;;;;;;;;;;;;;;;;5074275;28;20376;-73
2023/11/21 11:30:54;;;;;;;;;;;;;;;;;;5074375;28;19915;-70
2023/11/21 11:33:21;;;;;;;;;;;;;;;;;;5047521;28;19916;-71
2023/11/21 11:35:47;;;;;;;;;;;;;;;;;;5068944;28;19919;-70
2023/11/21 11:38:13;;;;;;;;;;;;;;;;;;5051985;28;19912;-73
2023/11/21 11:40:40;;;;;;;;;;;;;;;;;;5066227;28;20470;-72
2023/11/21 11:43:07;;;;;;;;;;;;;;;;;;5054611;28;19909;-71
2023/11/21 11:45:33;;;;;;;;;;;;;;;;;;5069092;28;19956;-71
2023/11/21 11:47:59;;;;;;;;;;;;;;;;;;5072838;28;19917;-73
2023/11/21 11:50:26;;;;;;;;;;;;;;;;;;5073651;28;19985;-71
2023/11/21 11:52:54;;;;;;;;;;;;;;;;;;5057204;28;19958;-70
2023/11/21 11:55:20;;;;;;;;;;;;;;;;;;5076101;28;20016;-71
2023/11/21 11:57:46;;;;;;;;;;;;;;;;;;5074683;28;19944;-71
2023/11/21 12:00:16;;;;;;;;;;;;;;;;;;5073773;28;20396;-72
2023/11/21 12:02:42;;;;;;;;;;;;;;;;;;5072035;28;19931;-72
2023/11/21 12:05:09;;;;;;;;;;;;;;;;;;5055920;28;20369;-69
2023/11/21 12:07:35;;;;;;;;;;;;;;;;;;5076010;28;19908;-73
2023/11/21 12:10:01;;;;;;;;;;;;;;;;;;5093099;28;19916;-73
2023/11/21 12:12:27;;;;;;;;;;;;;;;;;;5090477;28;19908;-72
2023/11/21 12:14:54;;;;;;;;;;;;;;;;;;5090370;28;20007;-73
2023/11/21 12:17:20;;;;;;;;;;;;;;;;;;5091705;28;19939;-74
2023/11/21 12:19:46;;;;;;;;;;;;;;;;;;5090907;28;19947;-74
2023/11/21 12:22:12;;;;;;;;;;;;;;;;;;5090631;28;19939;-74
2023/11/21 12:24:38;;;;;;;;;;;;;;;;;;5091173;28;19922;-74
2023/11/21 12:27:04;;;;;;;;;;;;;;;;;;5092460;28;19995;-75
2023/11/21 12:29:30;;;;;;;;;;;;;;;;;;5094116;28;19916;-74
2023/11/21 12:31:56;;;;;;;;;;;;;;;;;;5095944;28;19912;-74
2023/11/21 12:34:23;;;;;;;;;;;;;;;;;;5095131;28;20054;-73
2023/11/21 12:36:49;;;;;;;;;;;;;;;;;;5095630;28;19908;-74
2023/11/21 12:39:15;;;;;;;;;;;;;;;;;;5096357;28;19908;-74
2023/11/21 12:41:41;;;;;;;;;;;;;;;;;;5095931;28;19953;-74
2023/11/21 12:44:07;;;;;;;;;;;;;;;;;;5096241;28;19930;-75
2023/11/21 12:46:34;;;;;;;;;;;;;;;;;;5095157;28;20318;-74
2023/11/21 12:49:00;;;;;;;;;;;;;;;;;;5096062;28;20279;-74
2023/11/21 12:51:26;;;;;;;;;;;;;;;;;;5096267;28;19914;-73
2023/11/21 12:53:52;;;;;;;;;;;;;;;;;;5094912;28;19908;-74
2023/11/21 12:56:20;;;;;;;;;;;;;;;;;;5094537;28;19954;-74
2023/11/21 12:58:51;;;;;;;;;;;;;;;;;;5089195;28;19918;-73
2023/11/21 13:01:18;;;;;;;;;;;;;;;;;;5095872;28;20395;-74
2023/11/21 13:03:45;;;;;;;;;;;;;;;;;;5095582;28;20383;-74
2023/11/21 13:06:12;;;;;;;;;;;;;;;;;;5094543;28;20372;-74
2023/11/21 13:08:39;;;;;;;;;;;;;;;;;;5093244;28;19947;-75
2023/11/21 13:11:05;;;;;;;;;;;;;;;;;;5093373;28;19908;-75
2023/11/21 13:13:31;;;;;;;;;;;;;;;;;;5093992;28;19978;-74
2023/11/21 13:15:57;;;;;;;;;;;;;;;;;;5094354;28;19916;-73
2023/11/21 13:18:23;;;;;;;;;;;;;;;;;;5093507;28;20355;-72
2023/11/21 13:20:50;;;;;;;;;;;;;;;;;;5095435;28;19908;-72
2023/11/21 13:23:16;;;;;;;;;;;;;;;;;;5095342;28;20275;-72
2023/11/21 13:25:42;;;;;;;;;;;;;;;;;;5093353;28;19908;-72
2023/11/21 13:28:08;;;;;;;;;;;;;;;;;;5095375;28;20333;-73
2023/11/21 13:30:34;;;;;;;;;;;;;;;;;;5093754;28;20012;-73
2023/11/21 13:33:05;;;;;;;;;;;;;;;;;;5093797;28;19915;-73
2023/11/21 13:35:37;;;;;;;;;;;;;;;;;;5095057;28;20370;-72
2023/11/21 13:38:05;;;;;;;;;;;;;;;;;;5095401;28;19987;-73
2023/11/21 13:40:31;;;;;;;;;;;;;;;;;;5094785;28;19966;-73
2023/11/21 13:42:59;;;;;;;;;;;;;;;;;;5094947;28;19916;-72
2023/11/21 13:45:25;;;;;;;;;;;;;;;;;;5094779;28;19908;-73
2023/11/21 13:47:51;;;;;;;;;;;;;;;;;;5094557;28;19931;-72
2023/11/21 13:50:22;;;;;;;;;;;;;;;;;;5095231;28;20437;-73
2023/11/21 13:52:48;;;;;;;;;;;;;;;;;;5094691;28;19912;-73
2023/11/21 13:55:16;;;;;;;;;;;;;;;;;;5095146;28;20246;-73
2023/11/21 13:57:44;;;;;;;;;;;;;;;;;;5095190;28;19908;-73
2023/11/21 14:00:36;;;;;;;;;;;;;;;;;;5093088;28;20349;-73
2023/11/21 14:03:00;;;;;;;;;;;;;;;;;;5094165;28;19991;-73
2023/11/21 14:05:29;;;;;;;;;;;;;;;;;;5093667;28;19950;-73
2023/11/21 14:07:56;;;;;;;;;;;;;;;;;;5093405;28;19927;-73
2023/11/21 14:10:24;;;;;;;;;;;;;;;;;;5093017;28;20410;-73
2023/11/21 14:12:50;;;;;;;;;;;;;;;;;;5093664;28;19908;-73
2023/11/21 14:15:18;;;;;;;;;;;;;;;;;;5093866;28;20006;-73
2023/11/21 14:17:44;;;;;;;;;;;;;;;;;;5094199;28;19908;-73
2023/11/21 14:20:15;;;;;;;;;;;;;;;;;;5076018;28;20425;-73
2023/11/21 14:22:41;;;;;;;;;;;;;;;;;;5094727;28;19951;-73
2023/11/21 14:25:07;;;;;;;;;;;;;;;;;;5094524;28;19919;-73
2023/11/21 14:27:33;;;;;;;;;;;;;;;;;;5094224;28;19962;-73
2023/11/21 14:29:59;;;;;;;;;;;;;;;;;;5076224;28;19916;-74
2023/11/21 14:32:26;;;;;;;;;;;;;;;;;;5076224;28;20003;-73
2023/11/21 14:34:51;;;;;;;;;;;;;;;;;;5093892;28;19908;-73
2023/11/21 14:37:17;;;;;;;;;;;;;;;;;;5094248;28;19966;-73
2023/11/21 14:39:49;;;;;;;;;;;;;;;;;;5093118;28;19914;-73
2023/11/21 14:42:15;;;;;;;;;;;;;;;;;;5091689;28;19908;-73
2023/11/21 14:44:42;;;;;;;;;;;;;;;;;;5092159;28;19909;-73
2023/11/21 14:47:14;;;;;;;;;;;;;;;;;;5092408;28;20408;-73
2023/11/21 14:49:52;;;;;;;;;;;;;;;;;;5091868;28;19959;-73
2023/11/21 14:52:33;;;;;;;;;;;;;;;;;;5091968;28;19912;-73
2023/11/21 14:55:18;;;;;;;;;;;;;;;;;;5091624;28;19909;-73
2023/11/21 14:57:49;;;;;;;;;;;;;;;;;;5093753;28;19909;-74
2023/11/21 15:00:35;;;;;;;;;;;;;;;;;;5091594;28;19916;-73
2023/11/21 15:03:01;;;;;;;;;;;;;;;;;;5091670;28;19915;-73
2023/11/21 15:05:27;;;;;;;;;;;;;;;;;;5092022;28;19912;-73
2023/11/21 15:07:56;;;;;;;;;;;;;;;;;;5092493;28;19927;-73
2023/11/21 15:10:38;;;;;;;;;;;;;;;;;;5074137;28;20245;-73
2023/11/21 15:13:04;;;;;;;;;;;;;;;;;;5075158;28;19908;-73
2023/11/21 15:15:32;;;;;;;;;;;;;;;;;;5093719;28;19908;-73
2023/11/21 15:17:58;;;;;;;;;;;;;;;;;;5093325;28;19939;-73
2023/11/21 15:20:26;;;;;;;;;;;;;;;;;;5093756;28;19927;-73
2023/11/21 15:22:52;;;;;;;;;;;;;;;;;;5094047;28;19931;-73
2023/11/21 15:25:18;;;;;;;;;;;;;;;;;;5093390;28;19908;-74
2023/11/21 15:27:46;;;;;;;;;;;;;;;;;;5093794;28;19939;-73
2023/11/21 15:30:12;;;;;;;;;;;;;;;;;;5093190;28;19916;-74
2023/11/21 15:32:39;;;;;;;;;;;;;;;;;;5093712;28;19908;-74
2023/11/21 15:35:05;;;;;;;;;;;;;;;;;;5075538;28;19908;-74
2023/11/21 15:37:31;;;;;;;;;;;;;;;;;;5093594;28;20431;-74
2023/11/21 15:39:57;;;;;;;;;;;;;;;;;;5075365;28;20364;-74
2023/11/21 15:42:23;;;;;;;;;;;;;;;;;;5093497;28;19976;-74
2023/11/21 15:44:51;;;;;;;;;;;;;;;;;;5074972;28;19908;-74
2023/11/21 15:47:17;;;;;;;;;;;;;;;;;;5093552;28;20425;-74
2023/11/21 15:49:43;;;;;;;;;;;;;;;;;;5093453;28;19916;-74
2023/11/21 15:52:10;;;;;;;;;;;;;;;;;;5093135;28;20323;-74
2023/11/21 15:54:36;;;;;;;;;;;;;;;;;;5093461;28;19908;-74
2023/11/21 15:57:03;;;;;;;;;;;;;;;;;;5093467;28;19954;-74
2023/11/21 15:59:31;;;;;;;;;;;;;;;;;;5093134;28;19909;-74
2023/11/21 16:01:57;;;;;;;;;;;;;;;;;;5093444;28;20279;-74
2023/11/21 16:04:23;;;;;;;;;;;;;;;;;;5093419;28;19908;-74
2023/11/21 16:06:49;;;;;;;;;;;;;;;;;;5093126;28;19908;-74
2023/11/21 16:09:22;;;;;;;;;;;;;;;;;;5093260;28;19973;-74
2023/11/21 16:11:48;;;;;;;;;;;;;;;;;;5094662;28;19951;-74
2023/11/21 16:14:19;;;;;;;;;;;;;;;;;;5096802;28;20360;-74
2023/11/21 16:16:45;;;;;;;;;;;;;;;;;;5097155;28;19953;-75
2023/11/21 16:19:11;;;;;;;;;;;;;;;;;;5097040;28;19915;-74
2023/11/21 16:21:37;;;;;;;;;;;;;;;;;;5096562;28;20421;-74
2023/11/21 16:24:03;;;;;;;;;;;;;;;;;;5096981;28;19956;-74
2023/11/21 16:26:30;;;;;;;;;;;;;;;;;;5078265;28;19908;-74
2023/11/21 16:28:56;;;;;;;;;;;;;;;;;;5097019;28;19970;-74
2023/11/21 16:31:23;;;;;;;;;;;;;;;;;;5096762;28;19908;-73
2023/11/21 16:33:49;;;;;;;;;;;;;;;;;;5094773;28;19970;-74
2023/11/21 16:36:14;;;;;;;;;;;;;;;;;;5074950;28;20381;-74
2023/11/21 16:38:40;;;;;;;;;;;;;;;;;;5076693;28;20365;-75
2023/11/21 16:41:07;;;;;;;;;;;;;;;;;;5075961;28;19909;-74
2023/11/21 16:43:33;;;;;;;;;;;;;;;;;;5058161;28;19995;-74